sensor_id;sensor_type;location;lat;lon;timestamp;pressure;altitude;pressure_sealevel;temperature
15360;BMP280;7779;49.596;11.070;2022-11-20T00:01:15;97851.13;;;5.24
15360;BMP280;7779;49.596;11.070;2022-11-20T00:03:41;97844.41;;;5.23
15360;BMP280;7779;49.596;11.070;2022-11-20T00:06:11;97840.41;;;5.25
15360;BMP280;7779;49.596;11.070;2022-11-20T00:08:38;97841.19;;;5.24
15360;BMP280;7779;49.596;11.070;2022-11-20T00:11:06;97840.41;;;5.25
15360;BMP280;7779;49.596;11.070;2022-11-20T00:13:33;97843.78;;;5.26
15360;BMP280;7779;49.596;11.070;2022-11-20T00:16:01;97839.66;;;5.26
15360;BMP280;7779;49.596;11.070;2022-11-20T00:18:27;97835.44;;;5.25
15360;BMP280;7779;49.596;11.070;2022-11-20T00:20:53;97840.50;;;5.27
15360;BMP280;7779;49.596;11.070;2022-11-20T00:23:25;97837.28;;;5.28
15360;BMP280;7779;49.596;11.070;2022-11-20T00:25:51;97834.91;;;5.29
15360;BMP280;7779;49.596;11.070;2022-11-20T00:28:16;97834.13;;;5.30
15360;BMP280;7779;49.596;11.070;2022-11-20T00:30:42;97841.59;;;5.30
15360;BMP280;7779;49.596;11.070;2022-11-20T00:33:08;97847.50;;;5.32
15360;BMP280;7779;49.596;11.070;2022-11-20T00:35:33;97836.84;;;5.33
15360;BMP280;7779;49.596;11.070;2022-11-20T00:37:59;97829.38;;;5.33
15360;BMP280;7779;49.596;11.070;2022-11-20T00:40:25;97831.19;;;5.36
15360;BMP280;7779;49.596;11.070;2022-11-20T00:42:50;97827.88;;;5.35
15360;BMP280;7779;49.596;11.070;2022-11-20T00:45:16;97849.38;;;5.35
15360;BMP280;7779;49.596;11.070;2022-11-20T00:47:42;97849.47;;;5.36
15360;BMP280;7779;49.596;11.070;2022-11-20T00:50:08;97848.69;;;5.37
15360;BMP280;7779;49.596;11.070;2022-11-20T00:52:34;97844.59;;;5.38
15360;BMP280;7779;49.596;11.070;2022-11-20T00:54:59;97838.75;;;5.37
15360;BMP280;7779;49.596;11.070;2022-11-20T00:57:25;97848.81;;;5.39
15360;BMP280;7779;49.596;11.070;2022-11-20T00:59:51;97854.63;;;5.39
15360;BMP280;7779;49.596;11.070;2022-11-20T01:02:16;97857.09;;;5.39
15360;BMP280;7779;49.596;11.070;2022-11-20T01:04:42;97852.16;;;5.39
15360;BMP280;7779;49.596;11.070;2022-11-20T01:07:08;97839.84;;;5.41
15360;BMP280;7779;49.596;11.070;2022-11-20T01:09:34;97840.69;;;5.41
15360;BMP280;7779;49.596;11.070;2022-11-20T01:12:00;97851.56;;;5.43
15360;BMP280;7779;49.596;11.070;2022-11-20T01:14:25;97850.06;;;5.45
15360;BMP280;7779;49.596;11.070;2022-11-20T01:16:52;97853.53;;;5.47
15360;BMP280;7779;49.596;11.070;2022-11-20T01:19:21;97842.81;;;5.48
15360;BMP280;7779;49.596;11.070;2022-11-20T01:21:53;97842.94;;;5.49
15360;BMP280;7779;49.596;11.070;2022-11-20T01:24:21;97847.91;;;5.49
15360;BMP280;7779;49.596;11.070;2022-11-20T01:26:50;97852.75;;;5.48
15360;BMP280;7779;49.596;11.070;2022-11-20T01:29:22;97850.38;;;5.49
15360;BMP280;7779;49.596;11.070;2022-11-20T01:31:48;97847.78;;;5.48
15360;BMP280;7779;49.596;11.070;2022-11-20T01:34:17;97844.56;;;5.49
15360;BMP280;7779;49.596;11.070;2022-11-20T01:36:44;97854.50;;;5.49
15360;BMP280;7779;49.596;11.070;2022-11-20T01:39:20;97852.00;;;5.49
15360;BMP280;7779;49.596;11.070;2022-11-20T01:41:48;97854.50;;;5.49
15360;BMP280;7779;49.596;11.070;2022-11-20T01:44:51;97851.91;;;5.47
15360;BMP280;7779;49.596;11.070;2022-11-20T01:47:35;97848.56;;;5.47
15360;BMP280;7779;49.596;11.070;2022-11-20T01:50:25;97844.56;;;5.49
15360;BMP280;7779;49.596;11.070;2022-11-20T01:53:13;97842.09;;;5.49
15360;BMP280;7779;49.596;11.070;2022-11-20T01:55:51;97845.41;;;5.49
15360;BMP280;7779;49.596;11.070;2022-11-20T01:58:25;97838.81;;;5.50
15360;BMP280;7779;49.596;11.070;2022-11-20T02:00:53;97841.50;;;5.53
15360;BMP280;7779;49.596;11.070;2022-11-20T02:03:20;97849.81;;;5.53
15360;BMP280;7779;49.596;11.070;2022-11-20T02:05:55;97844.19;;;5.56
15360;BMP280;7779;49.596;11.070;2022-11-20T02:08:23;97840.84;;;5.55
15360;BMP280;7779;49.596;11.070;2022-11-20T02:10:49;97834.25;;;5.56
15360;BMP280;7779;49.596;11.070;2022-11-20T02:13:16;97843.53;;;5.58
15360;BMP280;7779;49.596;11.070;2022-11-20T02:16:01;97835.25;;;5.58
15360;BMP280;7779;49.596;11.070;2022-11-20T02:18:28;97834.56;;;5.60
15360;BMP280;7779;49.596;11.070;2022-11-20T02:21:05;97836.38;;;5.63
15360;BMP280;7779;49.596;11.070;2022-11-20T02:23:53;97841.34;;;5.63
15360;BMP280;7779;49.596;11.070;2022-11-20T02:26:21;97842.97;;;5.62
15360;BMP280;7779;49.596;11.070;2022-11-20T02:28:49;97841.34;;;5.63
15360;BMP280;7779;49.596;11.070;2022-11-20T02:31:15;97839.06;;;5.66
15360;BMP280;7779;49.596;11.070;2022-11-20T02:33:41;97838.34;;;5.67
15360;BMP280;7779;49.596;11.070;2022-11-20T02:36:11;97821.78;;;5.67
15360;BMP280;7779;49.596;11.070;2022-11-20T02:38:39;97828.41;;;5.67
15360;BMP280;7779;49.596;11.070;2022-11-20T02:41:05;97828.41;;;5.67
15360;BMP280;7779;49.596;11.070;2022-11-20T02:43:31;97832.59;;;5.68
15360;BMP280;7779;49.596;11.070;2022-11-20T02:45:57;97820.94;;;5.67
15360;BMP280;7779;49.596;11.070;2022-11-20T02:48:22;97816.72;;;5.66
15360;BMP280;7779;49.596;11.070;2022-11-20T02:50:48;97822.44;;;5.65
15360;BMP280;7779;49.596;11.070;2022-11-20T02:53:14;97829.81;;;5.63
15360;BMP280;7779;49.596;11.070;2022-11-20T02:55:39;97841.47;;;5.64
15360;BMP280;7779;49.596;11.070;2022-11-20T02:58:05;97835.63;;;5.64
15360;BMP280;7779;49.596;11.070;2022-11-20T03:00:31;97837.34;;;5.65
15360;BMP280;7779;49.596;11.070;2022-11-20T03:02:57;97819.19;;;5.66
15360;BMP280;7779;49.596;11.070;2022-11-20T03:05:23;97817.69;;;5.68
15360;BMP280;7779;49.596;11.070;2022-11-20T03:07:49;97822.66;;;5.68
15360;BMP280;7779;49.596;11.070;2022-11-20T03:10:14;97820.25;;;5.69
15360;BMP280;7779;49.596;11.070;2022-11-20T03:12:40;97812.91;;;5.71
15360;BMP280;7779;49.596;11.070;2022-11-20T03:15:06;97803.72;;;5.70
15360;BMP280;7779;49.596;11.070;2022-11-20T03:17:32;97807.06;;;5.70
15360;BMP280;7779;49.596;11.070;2022-11-20T03:19:58;97805.34;;;5.69
15360;BMP280;7779;49.596;11.070;2022-11-20T03:22:24;97802.09;;;5.70
15360;BMP280;7779;49.596;11.070;2022-11-20T03:24:49;97803.84;;;5.71
15360;BMP280;7779;49.596;11.070;2022-11-20T03:27:15;97805.56;;;5.72
15360;BMP280;7779;49.596;11.070;2022-11-20T03:29:41;97805.56;;;5.72
15360;BMP280;7779;49.596;11.070;2022-11-20T03:32:07;97802.34;;;5.73
15360;BMP280;7779;49.596;11.070;2022-11-20T03:34:32;97799.84;;;5.73
15360;BMP280;7779;49.596;11.070;2022-11-20T03:36:58;97810.53;;;5.72
15360;BMP280;7779;49.596;11.070;2022-11-20T03:39:24;97806.44;;;5.73
15360;BMP280;7779;49.596;11.070;2022-11-20T03:41:50;97800.59;;;5.72
15360;BMP280;7779;49.596;11.070;2022-11-20T03:44:15;97806.31;;;5.71
15360;BMP280;7779;49.596;11.070;2022-11-20T03:46:41;97807.06;;;5.70
15360;BMP280;7779;49.596;11.070;2022-11-20T03:49:07;97807.00;;;5.69
15360;BMP280;7779;49.596;11.070;2022-11-20T03:51:35;97808.69;;;5.70
15360;BMP280;7779;49.596;11.070;2022-11-20T03:54:05;97794.63;;;5.70
15360;BMP280;7779;49.596;11.070;2022-11-20T03:56:35;97793.03;;;5.71
15360;BMP280;7779;49.596;11.070;2022-11-20T03:59:03;97797.13;;;5.70
15360;BMP280;7779;49.596;11.070;2022-11-20T04:01:35;97786.31;;;5.70
15360;BMP280;7779;49.596;11.070;2022-11-20T04:04:01;97786.22;;;5.68
15360;BMP280;7779;49.596;11.070;2022-11-20T04:06:30;97783.00;;;5.69
15360;BMP280;7779;49.596;11.070;2022-11-20T04:08:58;97781.34;;;5.70
15360;BMP280;7779;49.596;11.070;2022-11-20T04:11:30;97786.31;;;5.70
15360;BMP280;7779;49.596;11.070;2022-11-20T04:14:02;97784.63;;;5.69
15360;BMP280;7779;49.596;11.070;2022-11-20T04:16:34;97782.88;;;5.68
15360;BMP280;7779;49.596;11.070;2022-11-20T04:19:02;97787.84;;;5.68
15360;BMP280;7779;49.596;11.070;2022-11-20T04:21:29;97782.88;;;5.68
15360;BMP280;7779;49.596;11.070;2022-11-20T04:23:55;97782.88;;;5.68
15360;BMP280;7779;49.596;11.070;2022-11-20T04:26:26;97784.63;;;5.69
15360;BMP280;7779;49.596;11.070;2022-11-20T04:28:53;97792.81;;;5.68
15360;BMP280;7779;49.596;11.070;2022-11-20T04:31:23;97783.66;;;5.67
15360;BMP280;7779;49.596;11.070;2022-11-20T04:33:49;97772.72;;;5.65
15360;BMP280;7779;49.596;11.070;2022-11-20T04:36:24;97778.59;;;5.65
15360;BMP280;7779;49.596;11.070;2022-11-20T04:38:53;97783.47;;;5.64
15360;BMP280;7779;49.596;11.070;2022-11-20T04:41:21;97785.94;;;5.64
15360;BMP280;7779;49.596;11.070;2022-11-20T04:43:50;97776.84;;;5.64
15360;BMP280;7779;49.596;11.070;2022-11-20T04:46:20;97781.81;;;5.64
15360;BMP280;7779;49.596;11.070;2022-11-20T04:48:47;97780.97;;;5.64
15360;BMP280;7779;49.596;11.070;2022-11-20T04:51:13;97785.94;;;5.64
15360;BMP280;7779;49.596;11.070;2022-11-20T04:53:39;97783.34;;;5.62
15360;BMP280;7779;49.596;11.070;2022-11-20T04:56:07;97772.44;;;5.60
15360;BMP280;7779;49.596;11.070;2022-11-20T04:58:35;97770.81;;;5.61
15360;BMP280;7779;49.596;11.070;2022-11-20T05:01:14;97780.00;;;5.62
15360;BMP280;7779;49.596;11.070;2022-11-20T05:03:41;97772.56;;;5.62
15360;BMP280;7779;49.596;11.070;2022-11-20T05:06:10;97778.38;;;5.62
15360;BMP280;7779;49.596;11.070;2022-11-20T05:08:36;97774.25;;;5.63
15360;BMP280;7779;49.596;11.070;2022-11-20T05:11:21;97778.59;;;5.65
15360;BMP280;7779;49.596;11.070;2022-11-20T05:13:48;97771.88;;;5.64
15360;BMP280;7779;49.596;11.070;2022-11-20T05:16:22;97776.09;;;5.65
15360;BMP280;7779;49.596;11.070;2022-11-20T05:18:49;97775.22;;;5.65
15360;BMP280;7779;49.596;11.070;2022-11-20T05:21:16;97786.78;;;5.64
15360;BMP280;7779;49.596;11.070;2022-11-20T05:23:43;97779.34;;;5.64
15360;BMP280;7779;49.596;11.070;2022-11-20T05:26:20;97781.19;;;5.67
15360;BMP280;7779;49.596;11.070;2022-11-20T05:28:47;97777.91;;;5.68
15360;BMP280;7779;49.596;11.070;2022-11-20T05:31:20;97769.72;;;5.69
15360;BMP280;7779;49.596;11.070;2022-11-20T05:33:46;97764.75;;;5.69
15360;BMP280;7779;49.596;11.070;2022-11-20T05:36:14;97759.78;;;5.69
15360;BMP280;7779;49.596;11.070;2022-11-20T05:38:40;97759.78;;;5.69
15360;BMP280;7779;49.596;11.070;2022-11-20T05:41:13;97763.13;;;5.69
15360;BMP280;7779;49.596;11.070;2022-11-20T05:43:42;97757.38;;;5.70
15360;BMP280;7779;49.596;11.070;2022-11-20T05:46:10;97752.41;;;5.70
15360;BMP280;7779;49.596;11.070;2022-11-20T05:48:39;97750.78;;;5.71
15360;BMP280;7779;49.596;11.070;2022-11-20T05:51:08;97750.00;;;5.72
15360;BMP280;7779;49.596;11.070;2022-11-20T05:53:35;97742.44;;;5.70
15360;BMP280;7779;49.596;11.070;2022-11-20T05:56:09;97751.66;;;5.71
15360;BMP280;7779;49.596;11.070;2022-11-20T05:58:39;97747.41;;;5.70
15360;BMP280;7779;49.596;11.070;2022-11-20T06:01:09;97759.94;;;5.72
15360;BMP280;7779;49.596;11.070;2022-11-20T06:03:35;97753.38;;;5.72
15360;BMP280;7779;49.596;11.070;2022-11-20T06:06:03;97755.88;;;5.72
15360;BMP280;7779;49.596;11.070;2022-11-20T06:08:29;97748.31;;;5.71
15360;BMP280;7779;49.596;11.070;2022-11-20T06:10:56;97749.16;;;5.71
15360;BMP280;7779;49.596;11.070;2022-11-20T06:13:21;97749.16;;;5.71
15360;BMP280;7779;49.596;11.070;2022-11-20T06:15:52;97755.88;;;5.72
15360;BMP280;7779;49.596;11.070;2022-11-20T06:18:19;97749.16;;;5.71
15360;BMP280;7779;49.596;11.070;2022-11-20T06:20:45;97744.88;;;5.69
15360;BMP280;7779;49.596;11.070;2022-11-20T06:23:12;97751.53;;;5.70
15360;BMP280;7779;49.596;11.070;2022-11-20T06:25:42;97756.75;;;5.73
15360;BMP280;7779;49.596;11.070;2022-11-20T06:28:09;97759.25;;;5.73
15360;BMP280;7779;49.596;11.070;2022-11-20T06:30:35;97758.47;;;5.74
15360;BMP280;7779;49.596;11.070;2022-11-20T06:33:01;97764.38;;;5.76
15360;BMP280;7779;49.596;11.070;2022-11-20T06:35:27;97756.94;;;5.76
15360;BMP280;7779;49.596;11.070;2022-11-20T06:37:53;97763.63;;;5.77
15360;BMP280;7779;49.596;11.070;2022-11-20T06:40:18;97760.47;;;5.79
15360;BMP280;7779;49.596;11.070;2022-11-20T06:42:44;97756.38;;;5.80
15360;BMP280;7779;49.596;11.070;2022-11-20T06:45:10;97756.38;;;5.80
15360;BMP280;7779;49.596;11.070;2022-11-20T06:47:36;97760.59;;;5.81
15360;BMP280;7779;49.596;11.070;2022-11-20T06:50:02;97766.50;;;5.82
15360;BMP280;7779;49.596;11.070;2022-11-20T06:52:28;97766.63;;;5.84
15360;BMP280;7779;49.596;11.070;2022-11-20T06:54:53;97765.97;;;5.86
15360;BMP280;7779;49.596;11.070;2022-11-20T06:57:19;97770.16;;;5.87
15360;BMP280;7779;49.596;11.070;2022-11-20T06:59:45;97755.25;;;5.87
15360;BMP280;7779;49.596;11.070;2022-11-20T07:02:11;97760.31;;;5.89
15360;BMP280;7779;49.596;11.070;2022-11-20T07:04:38;97761.16;;;5.89
15360;BMP280;7779;49.596;11.070;2022-11-20T07:07:04;97779.44;;;5.90
15360;BMP280;7779;49.596;11.070;2022-11-20T07:09:32;97775.34;;;5.90
15360;BMP280;7779;49.596;11.070;2022-11-20T07:11:59;97773.69;;;5.91
15360;BMP280;7779;49.596;11.070;2022-11-20T07:14:24;97778.00;;;5.93
15360;BMP280;7779;49.596;11.070;2022-11-20T07:16:50;97763.97;;;5.94
15360;BMP280;7779;49.596;11.070;2022-11-20T07:19:16;97773.22;;;5.96
15360;BMP280;7779;49.596;11.070;2022-11-20T07:21:42;97772.66;;;6.00
15360;BMP280;7779;49.596;11.070;2022-11-20T07:24:07;97766.06;;;6.01
15360;BMP280;7779;49.596;11.070;2022-11-20T07:26:33;97772.09;;;6.04
15360;BMP280;7779;49.596;11.070;2022-11-20T07:28:59;97759.75;;;6.06
15360;BMP280;7779;49.596;11.070;2022-11-20T07:31:25;97766.56;;;6.08
15360;BMP280;7779;49.596;11.070;2022-11-20T07:33:51;97775.84;;;6.11
15360;BMP280;7779;49.596;11.070;2022-11-20T07:36:16;97775.16;;;6.13
15360;BMP280;7779;49.596;11.070;2022-11-20T07:38:42;97774.41;;;6.14
15360;BMP280;7779;49.596;11.070;2022-11-20T07:41:08;97777.84;;;6.16
15360;BMP280;7779;49.596;11.070;2022-11-20T07:43:33;97776.09;;;6.15
15360;BMP280;7779;49.596;11.070;2022-11-20T07:45:59;97777.09;;;6.17
15360;BMP280;7779;49.596;11.070;2022-11-20T07:48:25;97774.69;;;6.19
15360;BMP280;7779;49.596;11.070;2022-11-20T07:50:56;97778.06;;;6.19
15360;BMP280;7779;49.596;11.070;2022-11-20T07:53:22;97778.06;;;6.19
15360;BMP280;7779;49.596;11.070;2022-11-20T07:55:48;97791.44;;;6.21
15360;BMP280;7779;49.596;11.070;2022-11-20T07:58:14;97784.94;;;6.23
15360;BMP280;7779;49.596;11.070;2022-11-20T08:00:40;97776.63;;;6.22
15360;BMP280;7779;49.596;11.070;2022-11-20T08:03:07;97773.44;;;6.25
15360;BMP280;7779;49.596;11.070;2022-11-20T08:05:33;97776.91;;;6.27
15360;BMP280;7779;49.596;11.070;2022-11-20T08:07:59;97775.47;;;6.30
15360;BMP280;7779;49.596;11.070;2022-11-20T08:10:25;97772.28;;;6.33
15360;BMP280;7779;49.596;11.070;2022-11-20T08:12:52;97777.47;;;6.36
15360;BMP280;7779;49.596;11.070;2022-11-20T08:15:39;97774.97;;;6.36
15360;BMP280;7779;49.596;11.070;2022-11-20T08:18:08;97780.16;;;6.39
15360;BMP280;7779;49.596;11.070;2022-11-20T08:20:35;97772.03;;;6.41
15360;BMP280;7779;49.596;11.070;2022-11-20T08:23:03;97765.50;;;6.43
15360;BMP280;7779;49.596;11.070;2022-11-20T08:25:32;97765.72;;;6.46
15360;BMP280;7779;49.596;11.070;2022-11-20T08:28:03;97775.06;;;6.50
15360;BMP280;7779;49.596;11.070;2022-11-20T08:30:29;97773.66;;;6.54
15360;BMP280;7779;49.596;11.070;2022-11-20T08:33:03;97768.84;;;6.57
15360;BMP280;7779;49.596;11.070;2022-11-20T08:35:34;97778.13;;;6.59
15360;BMP280;7779;49.596;11.070;2022-11-20T08:38:01;97765.78;;;6.61
15360;BMP280;7779;49.596;11.070;2022-11-20T08:40:28;97768.34;;;6.62
15360;BMP280;7779;49.596;11.070;2022-11-20T08:42:53;97765.09;;;6.63
15360;BMP280;7779;49.596;11.070;2022-11-20T08:45:19;97773.44;;;6.63
15360;BMP280;7779;49.596;11.070;2022-11-20T08:47:46;97766.84;;;6.64
15360;BMP280;7779;49.596;11.070;2022-11-20T08:50:15;97769.34;;;6.64
15360;BMP280;7779;49.596;11.070;2022-11-20T08:52:42;97770.19;;;6.64
15360;BMP280;7779;49.596;11.070;2022-11-20T08:55:09;97770.09;;;6.63
15360;BMP280;7779;49.596;11.070;2022-11-20T08:57:36;97764.25;;;6.62
15360;BMP280;7779;49.596;11.070;2022-11-20T09:00:05;97769.22;;;6.62
15360;BMP280;7779;49.596;11.070;2022-11-20T09:02:31;97767.50;;;6.61
15360;BMP280;7779;49.596;11.070;2022-11-20T09:04:58;97768.28;;;6.61
15360;BMP280;7779;49.596;11.070;2022-11-20T09:07:24;97764.16;;;6.61
15360;BMP280;7779;49.596;11.070;2022-11-20T09:09:49;97765.97;;;6.63
15360;BMP280;7779;49.596;11.070;2022-11-20T09:12:15;97758.50;;;6.63
15360;BMP280;7779;49.596;11.070;2022-11-20T09:14:41;97755.44;;;6.67
15360;BMP280;7779;49.596;11.070;2022-11-20T09:17:07;97756.19;;;6.66
15360;BMP280;7779;49.596;11.070;2022-11-20T09:19:33;97761.38;;;6.69
15360;BMP280;7779;49.596;11.070;2022-11-20T09:21:59;97763.88;;;6.69
15360;BMP280;7779;49.596;11.070;2022-11-20T09:24:26;97763.19;;;6.72
15360;BMP280;7779;49.596;11.070;2022-11-20T09:26:53;97768.25;;;6.73
15360;BMP280;7779;49.596;11.070;2022-11-20T09:29:18;97757.50;;;6.74
15360;BMP280;7779;49.596;11.070;2022-11-20T09:31:44;97761.75;;;6.75
15360;BMP280;7779;49.596;11.070;2022-11-20T09:34:10;97755.22;;;6.77
15360;BMP280;7779;49.596;11.070;2022-11-20T09:36:36;97759.50;;;6.80
15360;BMP280;7779;49.596;11.070;2022-11-20T09:39:02;97761.25;;;6.81
15360;BMP280;7779;49.596;11.070;2022-11-20T09:41:44;97751.50;;;6.84
15360;BMP280;7779;49.596;11.070;2022-11-20T09:44:40;97743.91;;;6.82
15360;BMP280;7779;49.596;11.070;2022-11-20T09:50:31;97762.09;;;6.81
15360;BMP280;7779;49.596;11.070;2022-11-20T09:53:19;97766.13;;;6.79
15360;BMP280;7779;49.596;11.070;2022-11-20T09:55:51;97774.44;;;6.80
15360;BMP280;7779;49.596;11.070;2022-11-20T09:58:40;97777.03;;;6.81
15360;BMP280;7779;49.596;11.070;2022-11-20T10:01:26;97777.25;;;6.84
15360;BMP280;7779;49.596;11.070;2022-11-20T10:04:03;97773.97;;;6.85
15360;BMP280;7779;49.596;11.070;2022-11-20T10:07:12;97775.91;;;6.89
15360;BMP280;7779;49.596;11.070;2022-11-20T10:09:40;97773.41;;;6.89
15360;BMP280;7779;49.596;11.070;2022-11-20T10:13:00;97764.97;;;6.87
15360;BMP280;7779;49.596;11.070;2022-11-20T10:16:06;97754.84;;;6.84
15360;BMP280;7779;49.596;11.070;2022-11-20T10:19:14;97759.72;;;6.83
15360;BMP280;7779;49.596;11.070;2022-11-20T10:25:01;97739.69;;;6.81
15360;BMP280;7779;49.596;11.070;2022-11-20T10:30:21;97733.47;;;6.88
15360;BMP280;7779;49.596;11.070;2022-11-20T10:33:00;97731.34;;;6.94
15360;BMP280;7779;49.596;11.070;2022-11-20T10:35:43;97730.75;;;6.98
15360;BMP280;7779;49.596;11.070;2022-11-20T10:38:37;97738.50;;;7.02
15360;BMP280;7779;49.596;11.070;2022-11-20T10:41:05;97737.72;;;7.03
15360;BMP280;7779;49.596;11.070;2022-11-20T10:44:17;97722.19;;;7.07
15360;BMP280;7779;49.596;11.070;2022-11-20T10:47:12;97724.00;;;7.09
15360;BMP280;7779;49.596;11.070;2022-11-20T10:49:39;97711.72;;;7.12
15360;BMP280;7779;49.596;11.070;2022-11-20T10:53:00;97720.22;;;7.16
15360;BMP280;7779;49.596;11.070;2022-11-20T10:55:45;97717.75;;;7.16
15360;BMP280;7779;49.596;11.070;2022-11-20T11:01:43;97726.34;;;7.21
15360;BMP280;7779;49.596;11.070;2022-11-20T11:04:36;97735.66;;;7.23
15360;BMP280;7779;49.596;11.070;2022-11-20T11:07:15;97732.38;;;7.24
15360;BMP280;7779;49.596;11.070;2022-11-20T11:09:48;97748.19;;;7.25
15360;BMP280;7779;49.596;11.070;2022-11-20T11:12:14;97747.22;;;7.23
15360;BMP280;7779;49.596;11.070;2022-11-20T11:14:57;97750.84;;;7.28
15360;BMP280;7779;49.596;11.070;2022-11-20T11:17:29;97745.13;;;7.29
15360;BMP280;7779;49.596;11.070;2022-11-20T11:22:46;97742.03;;;7.33
15360;BMP280;7779;49.596;11.070;2022-11-20T11:25:39;97730.78;;;7.39
15360;BMP280;7779;49.596;11.070;2022-11-20T11:28:21;97732.75;;;7.44
15360;BMP280;7779;49.596;11.070;2022-11-20T11:30:47;97723.22;;;7.52
15360;BMP280;7779;49.596;11.070;2022-11-20T11:33:28;97722.81;;;7.59
15360;BMP280;7779;49.596;11.070;2022-11-20T11:36:00;97717.31;;;7.64
15360;BMP280;7779;49.596;11.070;2022-11-20T11:38:37;97714.22;;;7.68
15360;BMP280;7779;49.596;11.070;2022-11-20T11:41:06;97719.38;;;7.71
15360;BMP280;7779;49.596;11.070;2022-11-20T11:43:35;97709.69;;;7.76
15360;BMP280;7779;49.596;11.070;2022-11-20T11:49:17;97704.69;;;7.76
15360;BMP280;7779;49.596;11.070;2022-11-20T11:52:11;97702.88;;;7.73
15360;BMP280;7779;49.596;11.070;2022-11-20T11:55:00;97702.88;;;7.73
15360;BMP280;7779;49.596;11.070;2022-11-20T12:00:10;97686.22;;;7.86
15360;BMP280;7779;49.596;11.070;2022-11-20T12:05:37;97678.84;;;8.04
15360;BMP280;7779;49.596;11.070;2022-11-20T12:08:32;97683.22;;;8.08
15360;BMP280;7779;49.596;11.070;2022-11-20T12:11:32;97684.03;;;8.07
15360;BMP280;7779;49.596;11.070;2022-11-20T12:14:18;97691.50;;;8.07
15360;BMP280;7779;49.596;11.070;2022-11-20T12:16:50;97687.38;;;8.07
15360;BMP280;7779;49.596;11.070;2022-11-20T12:19:16;97691.72;;;8.10
15360;BMP280;7779;49.596;11.070;2022-11-20T12:25:22;97691.34;;;8.18
15360;BMP280;7779;49.596;11.070;2022-11-20T12:30:24;97691.63;;;8.22
15360;BMP280;7779;49.596;11.070;2022-11-20T12:36:05;97703.38;;;8.25
15360;BMP280;7779;49.596;11.070;2022-11-20T12:48:12;97694.59;;;8.31
15360;BMP280;7779;49.596;11.070;2022-11-20T12:56:36;97690.88;;;8.39
15360;BMP280;7779;49.596;11.070;2022-11-20T13:02:37;97680.25;;;8.43
15360;BMP280;7779;49.596;11.070;2022-11-20T13:06:02;97679.41;;;8.43
15360;BMP280;7779;49.596;11.070;2022-11-20T13:08:38;97682.84;;;8.45
15360;BMP280;7779;49.596;11.070;2022-11-20T13:14:39;97684.41;;;8.43
15360;BMP280;7779;49.596;11.070;2022-11-20T13:17:15;97686.72;;;8.40
15360;BMP280;7779;49.596;11.070;2022-11-20T13:19:55;97675.72;;;8.36
15360;BMP280;7779;49.596;11.070;2022-11-20T13:22:45;97679.00;;;8.35
15360;BMP280;7779;49.596;11.070;2022-11-20T13:25:37;97673.94;;;8.34
15360;BMP280;7779;49.596;11.070;2022-11-20T13:28:28;97671.34;;;8.32
15360;BMP280;7779;49.596;11.070;2022-11-20T13:30:57;97670.41;;;8.30
15360;BMP280;7779;49.596;11.070;2022-11-20T13:33:38;97670.41;;;8.30
15360;BMP280;7779;49.596;11.070;2022-11-20T13:36:20;97680.31;;;8.29
15360;BMP280;7779;49.596;11.070;2022-11-20T13:38:52;97674.38;;;8.27
15360;BMP280;7779;49.596;11.070;2022-11-20T13:41:35;97666.81;;;8.25
15360;BMP280;7779;49.596;11.070;2022-11-20T13:44:39;97679.91;;;8.21
15360;BMP280;7779;49.596;11.070;2022-11-20T13:47:26;97671.47;;;8.19
15360;BMP280;7779;49.596;11.070;2022-11-20T13:49:53;97673.78;;;8.17
15360;BMP280;7779;49.596;11.070;2022-11-20T13:55:38;97685.72;;;8.08
15360;BMP280;7779;49.596;11.070;2022-11-20T14:01:09;97696.16;;;8.01
15360;BMP280;7779;49.596;11.070;2022-11-20T14:03:37;97689.28;;;7.97
15360;BMP280;7779;49.596;11.070;2022-11-20T14:06:20;97692.66;;;7.97
15360;BMP280;7779;49.596;11.070;2022-11-20T14:08:50;97686.78;;;7.97
15360;BMP280;7779;49.596;11.070;2022-11-20T14:11:19;97680.19;;;7.97
15360;BMP280;7779;49.596;11.070;2022-11-20T14:14:02;97671.06;;;7.98
15360;BMP280;7779;49.596;11.070;2022-11-20T14:16:36;97681.88;;;7.98
15360;BMP280;7779;49.596;11.070;2022-11-20T14:22:10;97671.91;;;7.98
15360;BMP280;7779;49.596;11.070;2022-11-20T14:24:41;97671.81;;;7.97
15360;BMP280;7779;49.596;11.070;2022-11-20T14:27:14;97671.16;;;7.99
15360;BMP280;7779;49.596;11.070;2022-11-20T14:29:41;97674.41;;;7.98
15360;BMP280;7779;49.596;11.070;2022-11-20T14:32:09;97677.78;;;7.99
15360;BMP280;7779;49.596;11.070;2022-11-20T14:34:41;97681.22;;;8.01
15360;BMP280;7779;49.596;11.070;2022-11-20T14:37:18;97682.16;;;8.03
15360;BMP280;7779;49.596;11.070;2022-11-20T14:39:52;97682.16;;;8.03
15360;BMP280;7779;49.596;11.070;2022-11-20T14:42:28;97668.78;;;8.02
15360;BMP280;7779;49.596;11.070;2022-11-20T14:44:59;97665.34;;;8.00
15360;BMP280;7779;49.596;11.070;2022-11-20T14:47:29;97666.91;;;7.98
15360;BMP280;7779;49.596;11.070;2022-11-20T14:49:57;97677.78;;;7.99
15360;BMP280;7779;49.596;11.070;2022-11-20T14:52:26;97672.78;;;7.99
15360;BMP280;7779;49.596;11.070;2022-11-20T14:54:55;97666.16;;;7.99
15360;BMP280;7779;49.596;11.070;2022-11-20T14:57:32;97677.78;;;7.99
15360;BMP280;7779;49.596;11.070;2022-11-20T15:02:41;97672.78;;;7.99
15360;BMP280;7779;49.596;11.070;2022-11-20T15:05:07;97674.25;;;7.95
15360;BMP280;7779;49.596;11.070;2022-11-20T15:07:38;97675.84;;;7.95
15360;BMP280;7779;49.596;11.070;2022-11-20T15:10:12;97675.84;;;7.95
15360;BMP280;7779;49.596;11.070;2022-11-20T15:12:54;97675.84;;;7.95
15360;BMP280;7779;49.596;11.070;2022-11-20T15:15:47;97671.66;;;7.94
15360;BMP280;7779;49.596;11.070;2022-11-20T15:18:17;97668.22;;;7.92
15360;BMP280;7779;49.596;11.070;2022-11-20T15:20:44;97671.56;;;7.92
15360;BMP280;7779;49.596;11.070;2022-11-20T15:23:16;97673.28;;;7.93
15360;BMP280;7779;49.596;11.070;2022-11-20T15:25:47;97670.72;;;7.92
15360;BMP280;7779;49.596;11.070;2022-11-20T15:28:36;97680.69;;;7.92
15360;BMP280;7779;49.596;11.070;2022-11-20T15:31:05;97662.31;;;7.90
15360;BMP280;7779;49.596;11.070;2022-11-20T15:33:32;97670.72;;;7.92
15360;BMP280;7779;49.596;11.070;2022-11-20T15:35:59;97673.22;;;7.92
15360;BMP280;7779;49.596;11.070;2022-11-20T15:38:25;97666.59;;;7.92
15360;BMP280;7779;49.596;11.070;2022-11-20T15:40:51;97659.88;;;7.91
15360;BMP280;7779;49.596;11.070;2022-11-20T15:43:17;97661.41;;;7.89
15360;BMP280;7779;49.596;11.070;2022-11-20T15:45:53;97663.16;;;7.90
15360;BMP280;7779;49.596;11.070;2022-11-20T15:48:35;97660.56;;;7.89
15360;BMP280;7779;49.596;11.070;2022-11-20T15:53:56;97648.00;;;7.87
15360;BMP280;7779;49.596;11.070;2022-11-20T15:56:22;97647.16;;;7.87